Time;durP1;ratioP1;P1;durP2;ratioP2;P2;SDS_P1;SDS_P2;PMS_P1;PMS_P2;Temp;Humidity;BMP_temperature;BMP_pressure;BME280_temperature;BME280_humidity;BME280_pressure;Samples;Min_cycle;Max_cycle;Signal;HPM_P1;HPM_P2
2022/09/21 00:01:18;;;;;;;3.10;2.00;;;;;;;23.07;32.15;100765.08;1685418;83;21604;-76
2022/09/21 00:03:44;;;;;;;3.10;1.95;;;;;;;23.06;32.16;100759.86;1666826;85;21538;-77
2022/09/21 00:06:17;;;;;;;2.60;2.00;;;;;;;23.05;32.16;100762.38;1682616;84;21092;-77
2022/09/21 00:08:49;;;;;;;4.33;2.10;;;;;;;23.07;32.15;100769.81;1694934;84;21101;-76
2022/09/21 00:11:26;;;;;;;2.33;1.77;;;;;;;23.06;32.16;100765.41;1695279;84;21496;-76
2022/09/21 00:13:59;;;;;;;2.72;1.90;;;;;;;23.05;32.14;100774.88;1694989;83;21562;-77
2022/09/21 00:16:26;;;;;;;3.47;1.80;;;;;;;23.06;32.15;100775.13;1695240;83;21053;-76
2022/09/21 00:18:52;;;;;;;5.03;2.10;;;;;;;23.05;32.14;100785.97;1694847;84;21056;-76
2022/09/21 00:21:20;;;;;;;3.30;2.22;;;;;;;23.04;32.14;100782.37;1652131;85;21665;-77
2022/09/21 00:23:46;;;;;;;6.03;2.27;;;;;;;23.04;32.13;100788.53;1663529;86;21139;-77
2022/09/21 00:26:17;;;;;;;3.47;2.25;;;;;;;23.04;32.16;100787.93;1714702;83;21251;-76
2022/09/21 00:28:45;;;;;;;3.90;2.22;;;;;;;23.03;32.13;100784.94;1713962;83;21333;-76
2022/09/21 00:31:15;;;;;;;5.58;2.27;;;;;;;23.04;32.14;100784.37;1694882;83;20980;-75
2022/09/21 00:33:44;;;;;;;4.22;2.37;;;;;;;23.03;32.13;100779.39;1694788;83;21056;-77
2022/09/21 00:36:16;;;;;;;4.42;2.45;;;;;;;23.04;32.12;100785.75;1714389;83;21131;-77
2022/09/21 00:38:42;;;;;;;5.85;2.33;;;;;;;23.03;32.12;100784.12;1695032;83;21921;-76
2022/09/21 00:41:09;;;;;;;7.03;2.47;;;;;;;23.03;32.12;100785.51;1688513;83;21072;-77
2022/09/21 00:43:39;;;;;;;5.25;2.50;;;;;;;23.03;32.12;100792.45;1694756;83;21171;-77
2022/09/21 00:46:22;;;;;;;2.92;2.22;;;;;;;23.04;32.10;100791.30;1695119;83;21040;-77
2022/09/21 00:48:48;;;;;;;3.67;2.15;;;;;;;23.03;32.08;100789.67;1713809;83;21122;-77
2022/09/21 00:51:14;;;;;;;5.92;2.70;;;;;;;23.03;32.08;100793.83;1694697;83;21897;-77
2022/09/21 00:53:40;;;;;;;4.10;2.33;;;;;;;23.02;32.08;100792.20;1694623;84;21080;-78
2022/09/21 00:56:12;;;;;;;3.45;2.10;;;;;;;23.02;32.07;100790.81;1691290;83;21601;-77
2022/09/21 00:58:45;;;;;;;4.03;2.25;;;;;;;23.00;32.07;100790.35;1685191;83;21122;-77
2022/09/21 01:01:14;;;;;;;6.40;2.60;;;;;;;23.00;32.06;100796.69;1684809;84;21515;-77
2022/09/21 01:03:44;;;;;;;4.28;2.25;;;;;;;23.01;32.06;100793.34;1702507;83;21496;-77
2022/09/21 01:06:08;;;;;;;4.40;2.27;;;;;;;23.01;32.07;100791.95;1711771;83;21475;-78
2022/09/21 01:08:36;;;;;;;4.00;2.27;;;;;;;23.01;32.06;100783.63;1712104;83;21519;-76
2022/09/21 01:11:29;;;;;;;2.83;2.20;;;;;;;23.01;32.05;100785.02;1712199;83;21551;-77
2022/09/21 01:14:22;;;;;;;7.15;2.40;;;;;;;22.99;32.08;100785.37;1681371;83;21013;-77
2022/09/21 01:17:24;;;;;;;4.17;2.10;;;;;;;22.99;32.07;100783.17;1712663;83;21160;-77
2022/09/21 01:20:17;;;;;;;3.22;2.22;;;;;;;22.99;32.08;100785.94;1711983;83;21480;-77
2022/09/21 01:23:39;;;;;;;5.97;2.58;;;;;;;22.97;32.08;100790.42;1712609;83;21032;-76
2022/09/21 01:26:53;;;;;;;5.50;2.20;;;;;;;22.96;32.11;100792.95;1680403;85;21761;-77
2022/09/21 01:29:49;;;;;;;4.70;2.40;;;;;;;22.96;32.13;100792.13;1694724;84;21060;-77
2022/09/21 01:32:35;;;;;;;5.40;2.37;;;;;;;22.95;32.11;100790.53;1675105;84;21120;-77
2022/09/21 01:35:16;;;;;;;6.80;1.98;;;;;;;22.93;32.14;100783.92;1676366;85;21048;-78
2022/09/21 01:37:55;;;;;;;3.72;2.17;;;;;;;22.93;32.17;100783.92;1701571;82;21043;-76
2022/09/21 01:40:41;;;;;;;3.50;2.00;;;;;;;22.94;32.15;100784.73;1709500;82;21043;-76
2022/09/21 01:43:10;;;;;;;4.83;2.00;;;;;;;22.94;32.21;100781.96;1710433;82;21099;-76
2022/09/21 01:45:47;;;;;;;3.02;2.10;;;;;;;22.92;32.21;100779.51;1710949;83;21176;-76
2022/09/21 01:48:13;;;;;;;4.85;2.30;;;;;;;22.93;32.24;100786.69;1710533;83;21036;-76
2022/09/21 01:50:51;;;;;;;4.42;2.17;;;;;;;22.92;32.24;100787.83;1710885;83;21079;-77
2022/09/21 01:53:24;;;;;;;5.22;2.55;;;;;;;22.94;32.27;100783.34;1710191;83;21028;-77
2022/09/21 01:55:57;;;;;;;5.62;2.30;;;;;;;22.92;32.28;100782.28;1710816;82;21063;-77
2022/09/21 01:58:37;;;;;;;5.50;2.20;;;;;;;22.94;32.28;100783.34;1710585;83;21169;-77
2022/09/21 02:01:03;;;;;;;7.70;2.20;;;;;;;22.93;32.31;100793.63;1710523;82;21077;-77
2022/09/21 02:03:41;;;;;;;4.22;2.12;;;;;;;22.93;32.32;100786.69;1667105;83;21074;-77
2022/09/21 02:06:07;;;;;;;5.53;2.05;;;;;;;22.92;32.32;100786.45;1710746;83;21022;-77
2022/09/21 02:08:33;;;;;;;4.25;2.30;;;;;;;22.93;32.34;100786.69;1706948;83;21512;-77
2022/09/21 02:11:01;;;;;;;6.33;2.15;;;;;;;22.92;32.34;100789.22;1662215;84;21802;-79
2022/09/21 02:13:31;;;;;;;5.65;2.10;;;;;;;22.93;32.35;100783.10;1704680;83;21500;-77
2022/09/21 02:16:13;;;;;;;4.58;1.90;;;;;;;22.94;32.36;100787.51;1687457;83;21059;-77
2022/09/21 02:19:34;;;;;;;3.67;2.00;;;;;;;22.93;32.37;100788.08;1686769;83;21120;-77
2022/09/21 02:22:28;;;;;;;6.25;2.27;;;;;;;22.92;32.38;100790.61;1686749;83;21151;-77
2022/09/21 02:25:12;;;;;;;3.92;2.27;;;;;;;22.92;32.38;100795.34;1687275;83;21538;-77
2022/09/21 02:27:56;;;;;;;5.67;2.17;;;;;;;22.92;32.38;100798.93;1687185;83;21586;-77
2022/09/21 02:30:24;;;;;;;4.22;2.20;;;;;;;22.91;32.41;100796.51;1681439;85;21535;-76
2022/09/21 02:33:11;;;;;;;4.30;2.47;;;;;;;22.90;32.43;100791.53;1687341;83;21060;-77
2022/09/21 02:36:00;;;;;;;4.78;2.12;;;;;;;22.91;32.45;100800.67;1687494;84;21064;-77
2022/09/21 02:38:38;;;;;;;3.77;2.20;;;;;;;22.91;32.46;100797.89;1666832;85;21562;-77
2022/09/21 02:41:44;;;;;;;5.80;2.25;;;;;;;22.90;32.51;100797.65;1687111;83;21575;-77
2022/09/21 02:44:22;;;;;;;4.65;2.40;;;;;;;22.91;32.56;100807.61;1683646;83;21585;-77
2022/09/21 02:47:04;;;;;;;5.12;2.85;;;;;;;22.88;32.59;100806.30;1684871;84;21061;-77
2022/09/21 02:49:34;;;;;;;5.53;2.98;;;;;;;22.89;32.62;100805.16;1711001;83;21028;-77
2022/09/21 02:52:04;;;;;;;6.67;3.20;;;;;;;22.89;32.65;100803.77;1711765;83;21088;-78
2022/09/21 02:54:31;;;;;;;4.65;2.98;;;;;;;22.89;32.71;100802.95;1711887;83;21107;-77
2022/09/21 02:56:58;;;;;;;6.47;2.90;;;;;;;22.89;32.72;100802.95;1715358;83;21679;-77
2022/09/21 02:59:25;;;;;;;6.45;3.30;;;;;;;22.89;32.77;100801.56;1715504;82;21115;-77
2022/09/21 03:01:51;;;;;;;4.95;2.83;;;;;;;22.89;32.79;100805.72;1691334;83;21558;-77
2022/09/21 03:04:18;;;;;;;4.85;3.25;;;;;;;22.89;32.83;100806.54;1707671;83;21803;-77
2022/09/21 03:06:44;;;;;;;5.40;3.37;;;;;;;22.89;32.85;100810.70;1721356;82;21245;-77
2022/09/21 03:09:10;;;;;;;5.08;3.08;;;;;;;22.90;32.89;100808.75;1697293;83;21103;-77
2022/09/21 03:11:37;;;;;;;7.08;3.02;;;;;;;22.91;32.89;100810.37;1717907;82;21111;-78
2022/09/21 03:14:07;;;;;;;5.53;3.08;;;;;;;22.90;32.89;100816.50;1719123;82;21144;-77
2022/09/21 03:16:35;;;;;;;4.15;2.85;;;;;;;22.90;32.94;100807.36;1720588;82;22031;-77
2022/09/21 03:19:01;;;;;;;5.75;3.00;;;;;;;22.90;32.94;100806.78;1720389;82;21059;-77
2022/09/21 03:21:33;;;;;;;3.80;2.67;;;;;;;22.90;32.94;100802.63;1712300;83;21524;-77
2022/09/21 03:24:00;;;;;;;4.47;2.85;;;;;;;22.90;32.96;100804.02;1704902;83;21052;-78
2022/09/21 03:26:26;;;;;;;4.92;2.45;;;;;;;22.90;32.99;100802.63;1729186;82;21075;-77
2022/09/21 03:28:53;;;;;;;4.90;2.92;;;;;;;22.91;32.97;100806.22;1705156;84;21210;-77
2022/09/21 03:31:19;;;;;;;4.17;2.55;;;;;;;22.91;32.98;100803.45;1673213;85;20965;-78
2022/09/21 03:33:46;;;;;;;7.15;3.08;;;;;;;22.90;32.99;100807.36;1708084;82;21049;-77
2022/09/21 03:36:12;;;;;;;5.37;2.60;;;;;;;22.90;32.97;100812.34;1707964;83;21068;-77
2022/09/21 03:38:38;;;;;;;5.17;2.45;;;;;;;22.90;32.97;100805.40;1673603;85;21124;-77
2022/09/21 03:41:04;;;;;;;5.80;2.80;;;;;;;22.91;32.96;100806.22;1673359;85;21168;-77
2022/09/21 03:43:36;;;;;;;5.10;2.55;;;;;;;22.90;32.96;100810.95;1673085;85;21053;-78
2022/09/21 03:46:03;;;;;;;4.35;2.50;;;;;;;22.91;32.94;100814.54;1673534;85;21464;-77
2022/09/21 03:48:31;;;;;;;7.00;2.90;;;;;;;22.90;32.94;100822.61;1673282;85;21475;-78
2022/09/21 03:50:57;;;;;;;4.15;2.40;;;;;;;22.90;32.95;100819.84;1663858;86;21081;-77
2022/09/21 03:53:23;;;;;;;5.03;2.27;;;;;;;22.91;32.96;100827.02;1673142;85;21814;-77
2022/09/21 03:55:49;;;;;;;8.93;2.50;;;;;;;22.90;32.97;100817.89;1663254;84;21117;-77
2022/09/21 03:58:15;;;;;;;4.40;2.45;;;;;;;22.90;32.98;100828.17;1696760;84;21575;-77
2022/09/21 04:00:42;;;;;;;7.75;2.90;;;;;;;22.88;32.99;100829.87;1657993;84;21514;-77
2022/09/21 04:03:08;;;;;;;5.60;2.67;;;;;;;22.88;32.98;100837.37;1679274;84;21488;-77
2022/09/21 04:05:34;;;;;;;6.55;2.70;;;;;;;22.87;32.99;100835.20;1653303;85;21185;-77
2022/09/21 04:08:01;;;;;;;10.13;2.90;;;;;;;22.87;33.02;100835.77;1682354;84;21135;-78
2022/09/21 04:10:33;;;;;;;5.42;2.55;;;;;;;22.87;33.05;100839.94;1682478;84;21036;-77
2022/09/21 04:13:00;;;;;;;4.78;2.50;;;;;;;22.84;33.04;100837.23;1681992;84;21048;-78
2022/09/21 04:15:26;;;;;;;5.45;2.80;;;;;;;22.78;33.07;100835.80;1678488;83;21053;-78
2022/09/21 04:17:53;;;;;;;7.08;3.62;;;;;;;22.74;33.11;100837.61;1687034;83;21114;-78
2022/09/21 04:20:20;;;;;;;10.05;4.28;;;;;;;22.67;33.19;100833.91;1687519;83;21471;-78
2022/09/21 04:22:46;;;;;;;8.65;4.83;;;;;;;22.60;33.34;100839.73;1686844;83;21103;-76
2022/09/21 04:25:13;;;;;;;12.35;5.62;;;;;;;22.53;33.46;100842.99;1736358;82;21091;-76
2022/09/21 04:27:39;;;;;;;11.48;6.05;;;;;;;22.47;33.54;100838.78;1734818;82;21088;-76
2022/09/21 04:30:08;;;;;;;12.30;6.00;;;;;;;22.42;33.62;100840.34;1728415;82;21902;-76
2022/09/21 04:32:34;;;;;;;12.45;5.83;;;;;;;22.38;33.71;100842.14;1655880;84;21084;-78
2022/09/21 04:35:00;;;;;;;11.40;5.47;;;;;;;22.33;33.88;100848.67;1682254;83;21127;-77
2022/09/21 04:37:27;;;;;;;17.45;5.62;;;;;;;22.28;33.96;100846.06;1682617;82;21063;-79
2022/09/21 04:39:53;;;;;;;10.30;5.08;;;;;;;22.24;33.97;100846.47;1707560;82;21092;-79
2022/09/21 04:42:19;;;;;;;22.45;4.90;;;;;;;22.21;33.98;100845.75;1707392;82;21855;-77
2022/09/21 04:44:46;;;;;;;9.73;4.28;;;;;;;22.15;34.01;100847.05;1721512;81;21099;-76
2022/09/21 04:47:12;;;;;;;12.82;4.60;;;;;;;22.08;34.09;100855.05;1737028;80;21008;-76
2022/09/21 04:49:38;;;;;;;16.90;4.25;;;;;;;22.06;34.13;100848.22;1729314;81;21082;-77
2022/09/21 04:52:04;;;;;;;12.95;4.47;;;;;;;22.01;34.20;100850.58;1714052;81;21083;-76
2022/09/21 04:54:31;;;;;;;13.80;5.05;;;;;;;21.98;34.31;100855.96;1681734;81;21664;-80
2022/09/21 04:56:57;;;;;;;17.87;4.60;;;;;;;21.92;34.27;100853.06;1714236;81;21059;-78
2022/09/21 04:59:23;;;;;;;15.68;4.58;;;;;;;21.85;34.34;100859.89;1714816;82;21377;-78
2022/09/21 05:01:50;;;;;;;18.75;5.00;;;;;;;21.80;34.35;100850.37;1716640;82;21027;-76
2022/09/21 05:04:16;;;;;;;17.65;5.10;;;;;;;21.78;34.43;100854.02;1713031;82;21239;-80
2022/09/21 05:06:42;;;;;;;19.62;4.28;;;;;;;21.77;34.42;100846.84;1695141;82;21232;-79
2022/09/21 05:11:53;;;;;;;11.48;4.15;;;;;;;21.83;34.44;100851.10;1712984;82;21561;-77
2022/09/21 05:14:20;;;;;;;13.98;4.00;;;;;;;21.89;34.39;100853.16;1700691;82;21065;-78
2022/09/21 05:16:50;;;;;;;15.72;4.62;;;;;;;21.93;34.31;100854.73;1683555;82;21107;-78
2022/09/21 05:19:15;;;;;;;11.88;4.08;;;;;;;21.94;34.22;100856.37;1676043;83;21059;-76
2022/09/21 05:21:41;;;;;;;10.18;3.83;;;;;;;21.94;34.23;100854.38;1700418;82;21061;-78
2022/09/21 05:24:08;;;;;;;9.53;3.90;;;;;;;21.94;34.26;100854.98;1708683;83;21054;-75
2022/09/21 05:26:34;;;;;;;13.72;4.35;;;;;;;21.93;34.36;100862.47;1707077;82;21174;-76
2022/09/21 05:29:04;;;;;;;8.43;4.12;;;;;;;21.93;34.43;100851.96;1711887;82;21117;-83
2022/09/21 05:31:45;;;;;;;11.30;4.23;;;;;;;21.95;34.48;100860.74;1704508;82;21173;-82
2022/09/21 05:34:53;;;;;;;10.80;4.53;;;;;;;21.94;34.55;100859.92;1697514;82;27388;-84
2022/09/21 05:37:46;;;;;;;11.30;4.03;;;;;;;21.95;34.58;100854.64;1703363;82;21158;-87
2022/09/21 05:40:15;;;;;;;12.20;4.22;;;;;;;22.00;34.70;100867.52;1675679;84;21169;-84
2022/09/21 05:42:42;;;;;;;13.55;4.90;;;;;;;22.00;34.86;100863.36;1661113;84;21089;-86
2022/09/21 05:45:15;;;;;;;9.20;4.45;;;;;;;22.03;35.04;100862.13;1696422;82;21122;-82
2022/09/21 05:48:07;;;;;;;16.65;6.00;;;;;;;22.07;35.08;100859.52;1694440;82;21069;-81
2022/09/21 05:50:59;;;;;;;20.77;5.53;;;;;;;22.12;35.23;100857.98;1706343;82;21154;-78
2022/09/21 05:53:45;;;;;;;29.90;5.95;;;;;;;22.16;35.57;100858.95;1704833;82;21123;-81
2022/09/21 05:56:44;;;;;;;31.85;5.92;;;;;;;22.18;35.79;100853.34;1701661;83;21641;-80
2022/09/21 05:59:33;;;;;;;40.05;6.47;;;;;;;22.19;36.00;100854.95;1694725;82;21186;-79
2022/09/21 06:02:16;;;;;;;37.50;6.78;;;;;;;22.21;36.39;100865.72;1665167;83;21083;-81
2022/09/21 06:04:43;;;;;;;23.12;6.33;;;;;;;22.23;36.71;100860.11;1692916;83;21409;-76
2022/09/21 06:07:09;;;;;;;25.35;6.33;;;;;;;22.25;36.84;100855.61;1688466;82;21067;-80
2022/09/21 06:09:36;;;;;;;26.95;6.45;;;;;;;22.25;36.90;100853.66;1670174;84;21086;-82
2022/09/21 06:12:03;;;;;;;28.70;5.85;;;;;;;22.30;36.94;100860.98;1674657;84;21114;-82
2022/09/21 06:14:29;;;;;;;29.70;6.17;;;;;;;22.33;36.98;100858.38;1707954;82;21759;-82
2022/09/21 06:16:56;;;;;;;22.95;5.65;;;;;;;22.37;37.01;100860.48;1711871;81;21130;-81
2022/09/21 06:19:22;;;;;;;18.27;6.15;;;;;;;22.40;37.00;100862.62;1679081;83;21113;-82
2022/09/21 06:21:49;;;;;;;18.10;6.83;;;;;;;22.43;36.96;100861.95;1709289;81;21102;-81
2022/09/21 06:24:15;;;;;;;17.40;6.30;;;;;;;22.43;36.88;100862.77;1678975;82;22135;-82
2022/09/21 06:26:41;;;;;;;19.45;5.92;;;;;;;22.44;36.83;100864.41;1698821;82;21067;-80
2022/09/21 06:29:08;;;;;;;18.37;5.97;;;;;;;22.46;36.76;100864.88;1667887;83;21077;-81
2022/09/21 06:31:35;;;;;;;26.07;6.87;;;;;;;22.45;36.75;100865.22;1670206;82;39328;-81
2022/09/21 06:34:02;;;;;;;16.70;5.78;;;;;;;22.45;36.74;100866.02;1710165;82;21122;-81
2022/09/21 06:36:32;;;;;;;16.52;5.12;;;;;;;22.46;36.68;100864.88;1710341;82;21521;-81
2022/09/21 06:38:59;;;;;;;18.45;4.95;;;;;;;22.47;36.65;100872.62;1704732;81;21072;-82
2022/09/21 06:41:25;;;;;;;12.28;4.28;;;;;;;22.48;36.62;100877.03;1694837;83;21092;-79
2022/09/21 06:43:57;;;;;;;11.33;4.70;;;;;;;22.45;36.56;100871.55;1675966;83;21823;-80
2022/09/21 06:46:24;;;;;;;15.68;3.87;;;;;;;22.44;36.55;100871.34;1686286;83;21538;-81
2022/09/21 06:48:50;;;;;;;30.43;5.65;;;;;;;22.45;36.43;100870.77;1664196;83;21683;-77
2022/09/21 06:51:16;;;;;;;26.42;5.22;;;;;;;22.45;36.76;100872.94;1675689;83;21099;-78
2022/09/21 06:53:46;;;;;;;31.42;5.85;;;;;;;22.46;36.99;100871.80;1695553;82;21540;-77
2022/09/21 06:56:14;;;;;;;37.40;5.67;;;;;;;22.48;37.22;100871.48;1705635;81;21398;-77
2022/09/21 06:58:41;;;;;;;36.77;5.05;;;;;;;22.47;37.55;100867.90;1709246;82;21486;-78
2022/09/21 07:01:10;;;;;;;45.85;4.95;;;;;;;22.48;37.73;100868.15;1706327;82;21155;-78
2022/09/21 07:03:37;;;;;;;42.30;5.03;;;;;;;22.48;37.71;100870.92;1701256;82;21101;-81
2022/09/21 07:06:05;;;;;;;20.80;3.60;;;;;;;22.47;37.75;100880.94;1679795;83;21950;-79
2022/09/21 07:08:31;;;;;;;26.12;3.92;;;;;;;22.45;37.46;100877.70;1703085;82;21113;-84
2022/09/21 07:10:59;;;;;;;28.57;9.78;;;;;;;22.44;37.35;100874.11;1714660;82;21065;-79
2022/09/21 07:13:28;;;;;;;35.48;12.75;;;;;;;22.45;37.37;100869.38;1704228;82;21993;-80
2022/09/21 07:15:55;;;;;;;20.08;4.47;;;;;;;22.46;37.41;100868.22;1685366;84;21546;-77
2022/09/21 07:18:22;;;;;;;14.93;4.50;;;;;;;22.46;37.22;100870.42;1716736;81;21059;-78
2022/09/21 07:20:49;;;;;;;23.60;4.40;;;;;;;22.46;37.04;100869.59;1691148;82;21064;-80
2022/09/21 07:23:17;;;;;;;30.72;6.97;;;;;;;22.45;36.90;100867.39;1706583;82;21094;-83
2022/09/21 07:25:48;;;;;;;20.30;6.85;;;;;;;22.45;36.90;100869.38;1702184;82;21954;-83
2022/09/21 07:28:14;;;;;;;16.80;4.83;;;;;;;22.44;36.86;100872.72;1710996;82;21086;-82
2022/09/21 07:30:46;;;;;;;16.95;5.03;;;;;;;22.45;36.77;100877.09;1711997;82;21150;-83
2022/09/21 07:33:13;;;;;;;14.40;4.90;;;;;;;22.45;36.68;100882.64;1710189;82;21113;-82
2022/09/21 07:35:39;;;;;;;15.65;4.58;;;;;;;22.43;36.63;100883.56;1693143;83;21131;-80
2022/09/21 07:38:06;;;;;;;12.40;4.47;;;;;;;22.43;36.47;100874.42;1715486;82;21196;-82
2022/09/21 07:40:34;;;;;;;10.13;5.62;;;;;;;22.40;36.33;100878.68;1670105;84;21410;-85
2022/09/21 07:43:01;;;;;;;11.80;4.72;;;;;;;22.38;36.24;100876.79;1699302;82;21725;-85
2022/09/21 07:45:29;;;;;;;13.65;4.67;;;;;;;22.40;36.17;100874.52;1700299;82;21064;-82
2022/09/21 07:48:04;;;;;;;13.65;3.90;;;;;;;22.40;36.01;100882.84;1711092;82;21072;-81
2022/09/21 07:50:31;;;;;;;15.53;3.98;;;;;;;22.39;35.99;100874.84;1716344;82;21133;-80
2022/09/21 07:52:59;;;;;;;16.95;4.25;;;;;;;22.41;36.31;100876.12;1708336;82;21085;-81
2022/09/21 07:55:26;;;;;;;29.07;5.08;;;;;;;22.40;36.31;100875.91;1682470;82;21553;-78
2022/09/21 08:00:38;;;;;;;24.65;4.33;;;;;;;22.48;37.35;100869.53;1715113;82;21135;-82
2022/09/21 08:03:05;;;;;;;26.87;4.72;;;;;;;22.50;37.48;100870.00;1723031;82;23073;-83
2022/09/21 08:05:32;;;;;;;25.25;3.90;;;;;;;22.52;37.78;100866.34;1697175;82;21068;-79
2022/09/21 08:07:59;;;;;;;32.70;4.72;;;;;;;22.55;37.96;100871.22;1695810;83;21112;-82
2022/09/21 08:10:29;;;;;;;29.27;4.47;;;;;;;22.59;38.10;100869.42;1676525;84;21092;-83
2022/09/21 08:12:58;;;;;;;24.97;4.30;;;;;;;22.61;38.06;100864.94;1701669;82;21103;-82
2022/09/21 08:15:26;;;;;;;21.37;4.15;;;;;;;22.63;38.00;100862.06;1707884;82;22021;-81
2022/09/21 08:17:53;;;;;;;20.70;4.80;;;;;;;22.66;37.94;100866.16;1701036;83;21157;-85
2022/09/21 08:20:20;;;;;;;24.12;4.15;;;;;;;22.68;37.76;100870.79;1704321;82;21097;-82
2022/09/21 08:22:47;;;;;;;18.05;4.17;;;;;;;22.71;37.58;100875.70;1702461;81;22064;-85
2022/09/21 08:25:13;;;;;;;12.10;3.70;;;;;;;22.71;37.42;100868.77;1683558;82;21154;-81
2022/09/21 08:27:41;;;;;;;16.80;3.37;;;;;;;22.71;37.21;100872.35;1721015;81;21103;-83
2022/09/21 08:30:08;;;;;;;21.12;3.50;;;;;;;22.71;37.01;100869.58;1711361;82;21035;-82
2022/09/21 08:32:35;;;;;;;14.07;4.42;;;;;;;22.71;36.84;100869.58;1693315;82;21088;-84
2022/09/21 08:35:02;;;;;;;23.42;3.85;;;;;;;22.68;36.89;100860.52;1701732;83;21068;-83
2022/09/21 08:37:28;;;;;;;19.80;3.15;;;;;;;22.71;36.95;100860.44;1707524;82;21926;-83
2022/09/21 08:39:54;;;;;;;19.02;2.77;;;;;;;22.72;36.98;100860.13;1719031;80;21942;-84
2022/09/21 08:42:48;;;;;;;23.87;4.22;;;;;;;22.73;36.96;100857.59;1725863;82;21927;-82
2022/09/21 08:45:17;;;;;;;9.13;2.58;;;;;;;22.74;37.32;100855.64;1721331;82;21926;-81
2022/09/21 08:47:51;;;;;;;21.87;4.67;;;;;;;22.73;37.34;100858.98;1691778;82;21485;-82
2022/09/21 08:50:40;;;;;;;14.60;2.40;;;;;;;22.74;37.32;100862.58;1689275;82;21078;-82
2022/09/21 08:53:13;;;;;;;16.42;2.45;;;;;;;22.74;37.22;100854.25;1686150;83;21298;-81
2022/09/21 08:55:47;;;;;;;18.80;2.27;;;;;;;22.73;37.20;100857.59;1692904;82;21052;-81
2022/09/21 08:58:24;;;;;;;22.82;2.47;;;;;;;22.73;37.09;100857.59;1690290;82;20972;-81
2022/09/21 09:01:21;;;;;;;30.43;3.00;;;;;;;22.74;37.15;100854.25;1705996;83;21195;-81
2022/09/21 09:04:20;;;;;;;21.05;3.35;;;;;;;22.75;37.23;100845.58;1694880;82;21654;-80
2022/09/21 09:07:14;;;;;;;9.38;1.72;;;;;;;22.77;37.19;100841.10;1712846;82;21511;-82
2022/09/21 09:09:55;;;;;;;10.40;2.65;;;;;;;22.78;36.88;100839.15;1693563;83;21067;-82
2022/09/21 09:12:52;;;;;;;7.03;1.50;;;;;;;22.77;36.78;100831.39;1686517;84;21097;-82
2022/09/21 09:15:50;;;;;;;15.15;1.60;;;;;;;22.76;36.61;100830.58;1673453;83;21153;-82
2022/09/21 09:18:34;;;;;;;19.80;4.00;;;;;;;22.77;36.49;100830.01;1679621;83;21703;-82
2022/09/21 09:21:26;;;;;;;7.85;2.20;;;;;;;22.75;36.32;100821.19;1581627;88;21178;-82
2022/09/21 09:24:12;;;;;;;5.80;1.87;;;;;;;22.78;36.21;100823.89;1700674;83;22442;-81
2022/09/21 09:27:06;;;;;;;6.70;1.98;;;;;;;22.78;36.11;100817.77;1692323;83;21063;-81
2022/09/21 09:30:01;;;;;;;5.53;3.08;;;;;;;22.79;36.04;100815.81;1674238;85;21354;-83
2022/09/21 09:32:45;;;;;;;7.62;1.75;;;;;;;22.79;35.90;100813.83;1669206;85;21127;-82
2022/09/21 09:35:44;;;;;;;5.42;1.45;;;;;;;22.79;35.65;100817.99;1650042;85;21185;-82
2022/09/21 09:38:27;;;;;;;6.47;1.60;;;;;;;22.77;35.46;100810.59;1649568;85;21116;-81
2022/09/21 09:41:18;;;;;;;5.10;1.55;;;;;;;22.76;35.38;100815.89;1600253;86;21167;-82
2022/09/21 09:44:23;;;;;;;4.55;1.50;;;;;;;22.75;35.39;100810.91;1638348;87;21182;-82
2022/09/21 09:47:28;;;;;;;8.45;2.20;;;;;;;22.74;35.34;100810.66;1654245;85;21405;-82
2022/09/21 09:50:12;;;;;;;5.92;1.72;;;;;;;22.74;35.29;100809.28;1662686;84;21502;-82
2022/09/21 09:52:39;;;;;;;12.37;2.17;;;;;;;22.75;35.15;100810.91;1661370;85;21147;-80
2022/09/21 09:55:18;;;;;;;8.60;1.80;;;;;;;22.76;35.56;100806.19;1650490;84;21153;-82
2022/09/21 09:57:45;;;;;;;16.17;2.05;;;;;;;22.78;35.82;100807.25;1672189;84;21056;-82
2022/09/21 10:00:14;;;;;;;8.75;2.10;;;;;;;22.79;35.95;100803.34;1668232;83;21099;-81
2022/09/21 10:02:52;;;;;;;15.05;2.55;;;;;;;22.80;35.99;100810.48;1661213;85;21099;-82
2022/09/21 10:05:26;;;;;;;10.50;2.10;;;;;;;22.81;35.96;100810.73;1643290;85;21084;-83
2022/09/21 10:07:53;;;;;;;11.35;1.87;;;;;;;22.78;35.85;100811.41;1669453;84;21669;-80
2022/09/21 10:10:41;;;;;;;9.23;1.85;;;;;;;22.75;35.65;100805.36;1660136;84;21682;-81
2022/09/21 10:13:27;;;;;;;9.60;1.65;;;;;;;22.74;35.47;100802.34;1678359;84;21103;-80
2022/09/21 10:16:03;;;;;;;11.18;1.57;;;;;;;22.73;35.35;100809.06;1665724;85;21346;-81
2022/09/21 10:18:37;;;;;;;8.63;1.60;;;;;;;22.73;35.38;100802.13;1682167;82;21099;-81
2022/09/21 10:21:11;;;;;;;6.35;1.82;;;;;;;22.73;35.30;100806.28;1711210;82;21141;-81
2022/09/21 10:23:37;;;;;;;10.23;1.90;;;;;;;22.75;35.28;100805.94;1703749;82;21058;-82
2022/09/21 10:26:09;;;;;;;10.63;1.82;;;;;;;22.75;35.32;100804.55;1703729;81;21110;-82
2022/09/21 10:28:37;;;;;;;8.05;1.90;;;;;;;22.76;35.30;100805.61;1691046;82;21983;-82
2022/09/21 10:31:22;;;;;;;4.83;1.45;;;;;;;22.78;35.18;100802.52;1678729;82;21073;-80
2022/09/21 10:34:13;;;;;;;10.45;2.10;;;;;;;22.79;35.20;100803.34;1659830;84;21610;-81
2022/09/21 10:36:39;;;;;;;4.95;1.52;;;;;;;22.79;35.12;100801.95;1652738;84;21160;-82
2022/09/21 10:39:26;;;;;;;4.90;1.60;;;;;;;22.80;35.05;100804.38;1680900;84;21090;-82
2022/09/21 10:42:02;;;;;;;4.75;1.47;;;;;;;22.79;34.93;100799.96;1706078;82;21202;-82
2022/09/21 10:44:41;;;;;;;5.75;1.70;;;;;;;22.79;34.93;100795.80;1705424;82;21059;-82
2022/09/21 10:47:30;;;;;;;3.60;1.30;;;;;;;22.79;34.87;100799.17;1698217;83;21021;-81
2022/09/21 10:50:03;;;;;;;13.15;1.70;;;;;;;22.80;34.82;100795.23;1705692;82;21122;-81
2022/09/21 10:52:39;;;;;;;8.80;1.70;;;;;;;22.80;34.68;100795.23;1682880;84;21162;-81
2022/09/21 10:55:07;;;;;;;12.23;1.90;;;;;;;22.78;34.72;100798.92;1698172;81;22128;-81
2022/09/21 10:57:34;;;;;;;15.70;1.92;;;;;;;22.80;34.98;100795.23;1698757;82;21545;-82
2022/09/21 11:00:34;;;;;;;10.32;1.62;;;;;;;22.82;35.03;100796.55;1695800;81;21585;-82
2022/09/21 11:02:59;;;;;;;17.77;1.70;;;;;;;22.82;35.08;100795.73;1699594;82;21486;-82
2022/09/21 11:05:34;;;;;;;16.07;1.72;;;;;;;22.82;35.04;100795.73;1695992;82;21119;-83
2022/09/21 11:08:39;;;;;;;9.38;1.60;;;;;;;22.80;34.88;100793.27;1698510;82;21887;-84
2022/09/21 11:11:36;;;;;;;7.95;1.25;;;;;;;22.76;34.60;100785.38;1697028;82;21137;-82
2022/09/21 11:14:47;;;;;;;7.40;1.20;;;;;;;22.72;34.41;100786.63;1696569;83;21065;-83
2022/09/21 11:17:44;;;;;;;2.80;1.20;;;;;;;22.67;34.12;100775.67;1680099;83;21104;-84
2022/09/21 11:20:57;;;;;;;4.22;1.35;;;;;;;22.64;33.88;100777.73;1661979;85;21206;-83
2022/09/21 11:23:50;;;;;;;4.65;1.10;;;;;;;22.63;33.66;100777.48;1696138;83;21907;-83
2022/09/21 11:26:40;;;;;;;1.70;0.90;;;;;;;22.61;33.49;100773.43;1685856;83;21140;-83
2022/09/21 11:29:18;;;;;;;2.30;0.90;;;;;;;22.58;33.31;100769.34;1661867;86;21614;-83
2022/09/21 11:32:22;;;;;;;1.85;0.90;;;;;;;22.57;33.18;100766.36;1664584;84;21886;-84
2022/09/21 11:35:25;;;;;;;1.37;0.75;;;;;;;22.57;33.03;100762.77;1662848;84;21655;-83
2022/09/21 11:38:09;;;;;;;2.47;1.10;;;;;;;22.56;32.92;100758.36;1666397;85;21299;-82
2022/09/21 11:41:05;;;;;;;1.60;1.00;;;;;;;22.56;32.86;100752.81;1646893;85;21876;-81
2022/09/21 11:43:45;;;;;;;3.05;1.00;;;;;;;22.57;32.80;100741.97;1689297;83;21054;-81
2022/09/21 11:46:34;;;;;;;1.72;0.90;;;;;;;22.58;32.78;100744.39;1688051;83;21155;-80
2022/09/21 11:49:36;;;;;;;7.70;1.32;;;;;;;22.58;32.62;100744.39;1677081;83;21975;-81
2022/09/21 11:52:40;;;;;;;7.60;1.12;;;;;;;22.58;32.50;100743.00;1668892;84;21092;-81
2022/09/21 11:55:31;;;;;;;9.18;1.20;;;;;;;22.58;32.58;100744.39;1683804;82;21566;-82
2022/09/21 11:58:11;;;;;;;12.00;1.65;;;;;;;22.61;33.11;100745.13;1689345;82;21124;-83
2022/09/21 12:01:01;;;;;;;13.75;1.80;;;;;;;22.67;33.52;100741.58;1647474;85;21101;-83
2022/09/21 12:04:09;;;;;;;18.00;1.87;;;;;;;22.72;33.64;100740.05;1661157;83;21209;-83